sensor_id;sensor_type;location;lat;lon;timestamp;pressure;altitude;pressure_sealevel;temperature;humidity
21109;BME280;10712;52.944;9.098;2023-06-24T00:02:14;102288.25;;;24.54;60.44
21109;BME280;10712;52.944;9.098;2023-06-24T00:04:40;102281.34;;;24.50;60.40
21109;BME280;10712;52.944;9.098;2023-06-24T00:07:05;102285.06;;;24.49;60.54
21109;BME280;10712;52.944;9.098;2023-06-24T00:09:32;102287.34;;;24.44;60.61
21109;BME280;10712;52.944;9.098;2023-06-24T00:11:59;102279.47;;;24.41;60.55
21109;BME280;10712;52.944;9.098;2023-06-24T00:14:26;102282.47;;;24.38;60.47
21109;BME280;10712;52.944;9.098;2023-06-24T00:16:53;102282.19;;;24.31;60.86
21109;BME280;10712;52.944;9.098;2023-06-24T00:19:22;102287.03;;;24.27;60.93
21109;BME280;10712;52.944;9.098;2023-06-24T00:21:49;102280.16;;;24.23;60.90
21109;BME280;10712;52.944;9.098;2023-06-24T00:24:22;102287.59;;;24.21;60.83
21109;BME280;10712;52.944;9.098;2023-06-24T00:26:56;102286.41;;;24.14;60.89
21109;BME280;10712;52.944;9.098;2023-06-24T00:29:22;102293.41;;;24.07;61.16
21109;BME280;10712;52.944;9.098;2023-06-24T00:31:48;102287.28;;;24.05;61.18
21109;BME280;10712;52.944;9.098;2023-06-24T00:34:14;102289.25;;;24.03;61.23
21109;BME280;10712;52.944;9.098;2023-06-24T00:36:40;102288.81;;;23.98;61.05
21109;BME280;10712;52.944;9.098;2023-06-24T00:39:06;102296.41;;;23.94;61.09
21109;BME280;10712;52.944;9.098;2023-06-24T00:41:34;102303.00;;;23.92;61.06
21109;BME280;10712;52.944;9.098;2023-06-24T00:44:01;102299.81;;;23.87;60.95
21109;BME280;10712;52.944;9.098;2023-06-24T00:46:28;102297.25;;;23.85;60.79
21109;BME280;10712;52.944;9.098;2023-06-24T00:48:59;102301.09;;;23.83;60.63
21109;BME280;10712;52.944;9.098;2023-06-24T00:51:26;102297.19;;;23.76;60.62
21109;BME280;10712;52.944;9.098;2023-06-24T00:53:57;102298.47;;;23.72;60.51
21109;BME280;10712;52.944;9.098;2023-06-24T00:56:37;102296.28;;;23.66;60.67
21109;BME280;10712;52.944;9.098;2023-06-24T00:59:06;102293.84;;;23.63;60.91
21109;BME280;10712;52.944;9.098;2023-06-24T01:01:35;102295.84;;;23.61;60.95
21109;BME280;10712;52.944;9.098;2023-06-24T01:04:03;102291.38;;;23.60;60.76
21109;BME280;10712;52.944;9.098;2023-06-24T01:06:30;102295.38;;;23.55;60.70
21109;BME280;10712;52.944;9.098;2023-06-24T01:08:58;102292.78;;;23.54;60.51
21109;BME280;10712;52.944;9.098;2023-06-24T01:11:27;102298.38;;;23.52;60.61
21109;BME280;10712;52.944;9.098;2023-06-24T01:13:53;102294.94;;;23.50;61.04
21109;BME280;10712;52.944;9.098;2023-06-24T01:16:37;102301.59;;;23.46;60.80
21109;BME280;10712;52.944;9.098;2023-06-24T01:19:37;102305.00;;;23.39;61.25
21109;BME280;10712;52.944;9.098;2023-06-24T01:25:44;102299.22;;;23.32;61.27
21109;BME280;10712;52.944;9.098;2023-06-24T01:28:51;102295.53;;;23.33;61.04
21109;BME280;10712;52.944;9.098;2023-06-24T01:37:25;102299.91;;;23.25;61.02
21109;BME280;10712;52.944;9.098;2023-06-24T01:40:18;102300.31;;;23.20;60.83
21109;BME280;10712;52.944;9.098;2023-06-24T01:42:47;102298.88;;;23.16;61.03
21109;BME280;10712;52.944;9.098;2023-06-24T01:45:23;102294.78;;;23.10;60.90
21109;BME280;10712;52.944;9.098;2023-06-24T01:48:07;102296.81;;;23.08;60.89
21109;BME280;10712;52.944;9.098;2023-06-24T01:50:37;102294.22;;;23.07;61.26
21109;BME280;10712;52.944;9.098;2023-06-24T01:53:07;102305.09;;;23.07;61.16
21109;BME280;10712;52.944;9.098;2023-06-24T01:55:35;102299.66;;;23.07;61.29
21109;BME280;10712;52.944;9.098;2023-06-24T01:58:07;102307.81;;;23.07;61.17
21109;BME280;10712;52.944;9.098;2023-06-24T02:00:34;102310.78;;;23.04;61.41
21109;BME280;10712;52.944;9.098;2023-06-24T02:03:03;102317.94;;;23.05;61.22
21109;BME280;10712;52.944;9.098;2023-06-24T02:05:32;102318.81;;;23.05;61.45
21109;BME280;10712;52.944;9.098;2023-06-24T02:07:59;102316.22;;;23.04;61.68
21109;BME280;10712;52.944;9.098;2023-06-24T02:10:28;102313.50;;;23.04;61.70
21109;BME280;10712;52.944;9.098;2023-06-24T02:12:55;102317.06;;;23.04;61.84
21109;BME280;10712;52.944;9.098;2023-06-24T02:15:22;102313.50;;;23.04;61.80
21109;BME280;10712;52.944;9.098;2023-06-24T02:17:51;102313.66;;;23.02;61.95
21109;BME280;10712;52.944;9.098;2023-06-24T02:20:19;102310.78;;;23.04;61.91
21109;BME280;10712;52.944;9.098;2023-06-24T02:22:45;102306.22;;;23.04;62.12
21109;BME280;10712;52.944;9.098;2023-06-24T02:25:12;102301.91;;;23.02;61.89
21109;BME280;10712;52.944;9.098;2023-06-24T02:27:40;102305.63;;;23.01;61.87
21109;BME280;10712;52.944;9.098;2023-06-24T02:30:08;102305.88;;;22.98;61.92
21109;BME280;10712;52.944;9.098;2023-06-24T02:32:34;102309.56;;;22.97;61.79
21109;BME280;10712;52.944;9.098;2023-06-24T02:35:04;102302.41;;;22.96;62.07
21109;BME280;10712;52.944;9.098;2023-06-24T02:37:30;102305.00;;;22.97;62.05
21109;BME280;10712;52.944;9.098;2023-06-24T02:39:57;102306.16;;;22.95;61.80
21109;BME280;10712;52.944;9.098;2023-06-24T02:42:23;102306.41;;;22.92;62.06
21109;BME280;10712;52.944;9.098;2023-06-24T02:44:50;102317.28;;;22.92;62.20
21109;BME280;10712;52.944;9.098;2023-06-24T02:47:17;102308.38;;;22.90;62.10
21109;BME280;10712;52.944;9.098;2023-06-24T02:49:46;102312.38;;;22.86;61.96
21109;BME280;10712;52.944;9.098;2023-06-24T02:52:13;102305.47;;;22.82;62.11
21109;BME280;10712;52.944;9.098;2023-06-24T02:54:39;102316.34;;;22.82;62.04
21109;BME280;10712;52.944;9.098;2023-06-24T02:57:25;102310.06;;;22.81;62.09
21109;BME280;10712;52.944;9.098;2023-06-24T03:00:29;102316.84;;;22.75;61.94
21109;BME280;10712;52.944;9.098;2023-06-24T03:03:08;102314.38;;;22.72;61.86
21109;BME280;10712;52.944;9.098;2023-06-24T03:05:38;102326.47;;;22.68;62.19
21109;BME280;10712;52.944;9.098;2023-06-24T03:08:05;102325.88;;;22.65;61.96
21109;BME280;10712;52.944;9.098;2023-06-24T03:10:32;102321.22;;;22.56;61.60
21109;BME280;10712;52.944;9.098;2023-06-24T03:12:58;102328.31;;;22.47;61.75
21109;BME280;10712;52.944;9.098;2023-06-24T03:15:32;102320.41;;;22.44;61.53
21109;BME280;10712;52.944;9.098;2023-06-24T03:17:59;102326.81;;;22.43;61.78
21109;BME280;10712;52.944;9.098;2023-06-24T03:20:25;102322.38;;;22.42;61.98
21109;BME280;10712;52.944;9.098;2023-06-24T03:22:53;102326.81;;;22.43;62.09
21109;BME280;10712;52.944;9.098;2023-06-24T03:25:21;102333.97;;;22.44;61.96
21109;BME280;10712;52.944;9.098;2023-06-24T03:27:48;102326.69;;;22.45;61.90
21109;BME280;10712;52.944;9.098;2023-06-24T03:30:15;102331.03;;;22.47;61.79
21109;BME280;10712;52.944;9.098;2023-06-24T03:32:42;102341.72;;;22.49;61.84
21109;BME280;10712;52.944;9.098;2023-06-24T03:35:13;102344.34;;;22.50;61.94
21109;BME280;10712;52.944;9.098;2023-06-24T03:37:40;102344.34;;;22.50;62.21
21109;BME280;10712;52.944;9.098;2023-06-24T03:40:06;102349.75;;;22.50;62.31
21109;BME280;10712;52.944;9.098;2023-06-24T03:42:34;102351.72;;;22.48;62.02
21109;BME280;10712;52.944;9.098;2023-06-24T03:45:02;102350.03;;;22.47;62.07
21109;BME280;10712;52.944;9.098;2023-06-24T03:47:29;102355.47;;;22.47;62.32
21109;BME280;10712;52.944;9.098;2023-06-24T03:49:54;102355.59;;;22.46;62.02
21109;BME280;10712;52.944;9.098;2023-06-24T03:52:20;102352.75;;;22.47;62.36
21109;BME280;10712;52.944;9.098;2023-06-24T03:54:46;102351.72;;;22.48;62.19
21109;BME280;10712;52.944;9.098;2023-06-24T03:57:13;102358.19;;;22.47;62.44
21109;BME280;10712;52.944;9.098;2023-06-24T03:59:39;102356.19;;;22.49;62.56
21109;BME280;10712;52.944;9.098;2023-06-24T04:02:07;102356.94;;;22.51;62.51
21109;BME280;10712;52.944;9.098;2023-06-24T04:04:36;102357.66;;;22.53;62.47
21109;BME280;10712;52.944;9.098;2023-06-24T04:07:03;102354.69;;;22.56;62.61
21109;BME280;10712;52.944;9.098;2023-06-24T04:09:33;102352.72;;;22.58;62.60
21109;BME280;10712;52.944;9.098;2023-06-24T04:12:00;102349.72;;;22.61;62.71
21109;BME280;10712;52.944;9.098;2023-06-24T04:14:32;102356.75;;;22.64;63.18
21109;BME280;10712;52.944;9.098;2023-06-24T04:16:58;102356.63;;;22.65;63.01
21109;BME280;10712;52.944;9.098;2023-06-24T04:19:24;102352.94;;;22.66;63.05
21109;BME280;10712;52.944;9.098;2023-06-24T04:21:49;102353.66;;;22.68;63.61
21109;BME280;10712;52.944;9.098;2023-06-24T04:24:15;102353.53;;;22.70;63.67
21109;BME280;10712;52.944;9.098;2023-06-24T04:26:41;102349.69;;;22.72;63.45
21109;BME280;10712;52.944;9.098;2023-06-24T04:29:07;102347.75;;;22.74;63.88
21109;BME280;10712;52.944;9.098;2023-06-24T04:31:33;102364.66;;;22.78;64.00
21109;BME280;10712;52.944;9.098;2023-06-24T04:33:58;102368.97;;;22.81;64.10
21109;BME280;10712;52.944;9.098;2023-06-24T04:36:24;102370.44;;;22.85;63.88
21109;BME280;10712;52.944;9.098;2023-06-24T04:38:50;102370.03;;;22.89;64.26
21109;BME280;10712;52.944;9.098;2023-06-24T04:41:16;102372.38;;;22.94;64.24
21109;BME280;10712;52.944;9.098;2023-06-24T04:43:43;102375.81;;;22.96;64.06
21109;BME280;10712;52.944;9.098;2023-06-24T04:46:10;102378.53;;;22.96;64.50
21109;BME280;10712;52.944;9.098;2023-06-24T04:48:35;102372.97;;;22.97;64.35
21109;BME280;10712;52.944;9.098;2023-06-24T04:51:01;102365.69;;;22.98;64.65
21109;BME280;10712;52.944;9.098;2023-06-24T04:53:27;102373.59;;;23.01;64.59
21109;BME280;10712;52.944;9.098;2023-06-24T04:55:53;102374.78;;;23.08;64.84
21109;BME280;10712;52.944;9.098;2023-06-24T04:58:18;102374.25;;;23.14;64.63
21109;BME280;10712;52.944;9.098;2023-06-24T05:00:44;102372.75;;;23.21;64.76
21109;BME280;10712;52.944;9.098;2023-06-24T05:03:10;102375.19;;;23.24;64.97
21109;BME280;10712;52.944;9.098;2023-06-24T05:05:36;102374.81;;;23.29;65.09
21109;BME280;10712;52.944;9.098;2023-06-24T05:08:01;102378.97;;;23.33;64.85
21109;BME280;10712;52.944;9.098;2023-06-24T05:10:27;102371.44;;;23.36;64.95
21109;BME280;10712;52.944;9.098;2023-06-24T05:12:53;102371.88;;;23.41;65.15
21109;BME280;10712;52.944;9.098;2023-06-24T05:15:19;102371.38;;;23.47;65.07
21109;BME280;10712;52.944;9.098;2023-06-24T05:17:44;102368.97;;;23.54;65.33
21109;BME280;10712;52.944;9.098;2023-06-24T05:20:10;102361.28;;;23.59;65.24
21109;BME280;10712;52.944;9.098;2023-06-24T05:22:36;102362.75;;;23.63;65.14
21109;BME280;10712;52.944;9.098;2023-06-24T05:25:02;102358.00;;;23.65;65.54
21109;BME280;10712;52.944;9.098;2023-06-24T05:27:28;102357.63;;;23.70;65.35
21109;BME280;10712;52.944;9.098;2023-06-24T05:29:54;102346.31;;;23.74;65.63
21109;BME280;10712;52.944;9.098;2023-06-24T05:32:20;102347.63;;;23.80;65.26
21109;BME280;10712;52.944;9.098;2023-06-24T05:34:46;102346.25;;;23.85;65.59
21109;BME280;10712;52.944;9.098;2023-06-24T05:37:12;102345.69;;;23.91;65.46
21109;BME280;10712;52.944;9.098;2023-06-24T05:39:38;102355.44;;;23.94;65.79
21109;BME280;10712;52.944;9.098;2023-06-24T05:42:04;102360.31;;;24.00;65.57
21109;BME280;10712;52.944;9.098;2023-06-24T05:44:29;102363.50;;;24.05;65.95
21109;BME280;10712;52.944;9.098;2023-06-24T05:46:55;102355.53;;;24.13;65.61
21109;BME280;10712;52.944;9.098;2023-06-24T05:49:21;102349.38;;;24.21;65.86
21109;BME280;10712;52.944;9.098;2023-06-24T05:51:47;102345.41;;;24.25;65.90
21109;BME280;10712;52.944;9.098;2023-06-24T05:54:13;102342.69;;;24.34;65.67
21109;BME280;10712;52.944;9.098;2023-06-24T05:56:38;102340.44;;;24.40;65.80
21109;BME280;10712;52.944;9.098;2023-06-24T05:59:04;102357.06;;;24.56;65.77
21109;BME280;10712;52.944;9.098;2023-06-24T06:01:30;102356.06;;;24.57;65.83
21109;BME280;10712;52.944;9.098;2023-06-24T06:03:56;102352.78;;;24.63;65.91
21109;BME280;10712;52.944;9.098;2023-06-24T06:06:21;102350.19;;;24.71;65.88
21109;BME280;10712;52.944;9.098;2023-06-24T06:08:47;102338.72;;;24.77;66.08
21109;BME280;10712;52.944;9.098;2023-06-24T06:11:13;102335.41;;;24.83;66.15
21109;BME280;10712;52.944;9.098;2023-06-24T06:13:39;102328.69;;;24.87;66.08
21109;BME280;10712;52.944;9.098;2023-06-24T06:16:05;102339.34;;;24.90;65.87
21109;BME280;10712;52.944;9.098;2023-06-24T06:18:31;102337.06;;;24.95;65.72
21109;BME280;10712;52.944;9.098;2023-06-24T06:20:56;102340.19;;;25.00;65.71
21109;BME280;10712;52.944;9.098;2023-06-24T06:23:22;102348.81;;;25.05;65.69
21109;BME280;10712;52.944;9.098;2023-06-24T06:25:48;102344.50;;;25.13;65.36
21109;BME280;10712;52.944;9.098;2023-06-24T06:28:14;102347.94;;;25.15;65.31
21109;BME280;10712;52.944;9.098;2023-06-24T06:30:39;102346.03;;;25.25;65.28
21109;BME280;10712;52.944;9.098;2023-06-24T06:33:05;102355.38;;;25.32;65.26
21109;BME280;10712;52.944;9.098;2023-06-24T06:35:31;102361.97;;;25.39;65.08
21109;BME280;10712;52.944;9.098;2023-06-24T06:37:58;102364.09;;;25.45;65.10
21109;BME280;10712;52.944;9.098;2023-06-24T06:40:24;102372.00;;;25.48;64.94
21109;BME280;10712;52.944;9.098;2023-06-24T06:42:50;102375.88;;;25.55;64.69
21109;BME280;10712;52.944;9.098;2023-06-24T06:45:16;102371.28;;;25.56;64.38
21109;BME280;10712;52.944;9.098;2023-06-24T06:47:41;102367.44;;;25.58;64.07
21109;BME280;10712;52.944;9.098;2023-06-24T06:50:07;102369.72;;;25.63;64.00
21109;BME280;10712;52.944;9.098;2023-06-24T06:52:34;102370.97;;;25.68;63.65
21109;BME280;10712;52.944;9.098;2023-06-24T06:54:59;102374.25;;;25.81;63.15
21109;BME280;10712;52.944;9.098;2023-06-24T06:57:25;102381.84;;;25.87;62.79
21109;BME280;10712;52.944;9.098;2023-06-24T06:59:52;102381.53;;;25.91;62.24
21109;BME280;10712;52.944;9.098;2023-06-24T07:02:18;102376.81;;;25.93;62.03
21109;BME280;10712;52.944;9.098;2023-06-24T07:04:44;102382.66;;;25.98;61.90
21109;BME280;10712;52.944;9.098;2023-06-24T07:07:10;102388.25;;;26.06;61.53
21109;BME280;10712;52.944;9.098;2023-06-24T07:09:37;102386.19;;;26.08;61.29
21109;BME280;10712;52.944;9.098;2023-06-24T07:12:03;102389.06;;;26.16;60.99
21109;BME280;10712;52.944;9.098;2023-06-24T07:14:29;102387.31;;;26.24;60.72
21109;BME280;10712;52.944;9.098;2023-06-24T07:16:55;102385.00;;;26.30;60.71
21109;BME280;10712;52.944;9.098;2023-06-24T07:19:21;102390.41;;;26.39;60.34
21109;BME280;10712;52.944;9.098;2023-06-24T07:21:46;102385.03;;;26.47;60.00
21109;BME280;10712;52.944;9.098;2023-06-24T07:24:12;102385.13;;;26.55;59.63
21109;BME280;10712;52.944;9.098;2023-06-24T07:26:38;102386.22;;;26.62;59.30
21109;BME280;10712;52.944;9.098;2023-06-24T07:29:06;102389.03;;;26.71;59.10
21109;BME280;10712;52.944;9.098;2023-06-24T07:31:34;102386.41;;;26.79;59.01
21109;BME280;10712;52.944;9.098;2023-06-24T07:33:59;102381.72;;;26.89;58.39
21109;BME280;10712;52.944;9.098;2023-06-24T07:36:25;102387.75;;;26.92;58.27
21109;BME280;10712;52.944;9.098;2023-06-24T07:38:51;102390.03;;;26.97;58.79
21109;BME280;10712;52.944;9.098;2023-06-24T07:41:17;102386.50;;;27.04;58.20
21109;BME280;10712;52.944;9.098;2023-06-24T07:43:42;102381.59;;;27.08;58.21
21109;BME280;10712;52.944;9.098;2023-06-24T07:46:08;102391.91;;;27.14;58.21
21109;BME280;10712;52.944;9.098;2023-06-24T07:48:34;102387.22;;;27.24;57.66
21109;BME280;10712;52.944;9.098;2023-06-24T07:51:00;102385.88;;;27.28;57.60
21109;BME280;10712;52.944;9.098;2023-06-24T07:53:26;102393.06;;;27.29;56.64
21109;BME280;10712;52.944;9.098;2023-06-24T07:55:52;102393.81;;;27.39;56.45
21109;BME280;10712;52.944;9.098;2023-06-24T07:58:18;102387.03;;;27.43;55.59
21109;BME280;10712;52.944;9.098;2023-06-24T08:00:45;102390.84;;;27.51;55.68
21109;BME280;10712;52.944;9.098;2023-06-24T08:03:12;102385.75;;;27.56;56.23
21109;BME280;10712;52.944;9.098;2023-06-24T08:05:39;102381.06;;;27.66;56.23
21109;BME280;10712;52.944;9.098;2023-06-24T08:08:05;102379.22;;;27.74;56.38
21109;BME280;10712;52.944;9.098;2023-06-24T08:10:32;102368.44;;;27.81;56.22
21109;BME280;10712;52.944;9.098;2023-06-24T08:12:58;102371.25;;;27.89;56.28
21109;BME280;10712;52.944;9.098;2023-06-24T08:15:24;102366.47;;;27.91;56.10
21109;BME280;10712;52.944;9.098;2023-06-24T08:17:53;102374.19;;;27.96;55.34
21109;BME280;10712;52.944;9.098;2023-06-24T08:20:23;102358.66;;;28.04;55.33
21109;BME280;10712;52.944;9.098;2023-06-24T08:22:49;102370.91;;;28.18;55.46
21109;BME280;10712;52.944;9.098;2023-06-24T08:25:16;102364.59;;;28.26;54.80
21109;BME280;10712;52.944;9.098;2023-06-24T08:27:41;102366.69;;;28.32;54.52
21109;BME280;10712;52.944;9.098;2023-06-24T08:30:09;102367.72;;;28.39;54.75
21109;BME280;10712;52.944;9.098;2023-06-24T08:32:35;102357.63;;;28.39;54.66
21109;BME280;10712;52.944;9.098;2023-06-24T08:35:00;102363.63;;;28.43;54.83
21109;BME280;10712;52.944;9.098;2023-06-24T08:37:26;102356.81;;;28.55;54.43
21109;BME280;10712;52.944;9.098;2023-06-24T08:39:53;102356.81;;;28.63;53.74
21109;BME280;10712;52.944;9.098;2023-06-24T08:42:19;102361.09;;;28.57;53.06
21109;BME280;10712;52.944;9.098;2023-06-24T08:44:44;102358.03;;;28.69;53.32
21109;BME280;10712;52.944;9.098;2023-06-24T08:47:11;102355.50;;;28.75;53.05
21109;BME280;10712;52.944;9.098;2023-06-24T08:49:47;102363.75;;;28.83;53.23
21109;BME280;10712;52.944;9.098;2023-06-24T08:52:17;102355.69;;;28.90;52.81
21109;BME280;10712;52.944;9.098;2023-06-24T08:54:50;102351.91;;;28.91;52.76
21109;BME280;10712;52.944;9.098;2023-06-24T08:57:16;102345.06;;;29.03;52.42
21109;BME280;10712;52.944;9.098;2023-06-24T08:59:42;102351.06;;;29.15;51.27
21109;BME280;10712;52.944;9.098;2023-06-24T09:02:08;102352.63;;;29.17;51.92
21109;BME280;10712;52.944;9.098;2023-06-24T09:04:35;102352.59;;;29.33;48.86
21109;BME280;10712;52.944;9.098;2023-06-24T09:07:01;102347.63;;;29.29;49.93
21109;BME280;10712;52.944;9.098;2023-06-24T09:09:26;102351.72;;;29.33;50.23
21109;BME280;10712;52.944;9.098;2023-06-24T09:11:57;102341.47;;;29.43;50.89
21109;BME280;10712;52.944;9.098;2023-06-24T09:14:25;102343.34;;;29.51;50.64
21109;BME280;10712;52.944;9.098;2023-06-24T09:17:01;102344.19;;;29.51;50.65
21109;BME280;10712;52.944;9.098;2023-06-24T09:19:28;102341.78;;;29.56;51.14
21109;BME280;10712;52.944;9.098;2023-06-24T09:22:06;102344.84;;;29.61;51.56
21109;BME280;10712;52.944;9.098;2023-06-24T09:24:37;102347.41;;;29.71;51.76
21109;BME280;10712;52.944;9.098;2023-06-24T09:27:05;102345.44;;;29.88;51.23
21109;BME280;10712;52.944;9.098;2023-06-24T09:29:35;102342.06;;;29.94;51.05
21109;BME280;10712;52.944;9.098;2023-06-24T09:32:05;102334.13;;;29.91;50.27
21109;BME280;10712;52.944;9.098;2023-06-24T09:34:32;102343.09;;;29.93;49.83
21109;BME280;10712;52.944;9.098;2023-06-24T09:36:59;102341.34;;;29.92;49.08
21109;BME280;10712;52.944;9.098;2023-06-24T09:39:27;102350.06;;;30.03;48.86
21109;BME280;10712;52.944;9.098;2023-06-24T09:42:02;102330.31;;;30.08;49.02
21109;BME280;10712;52.944;9.098;2023-06-24T09:44:29;102334.72;;;30.17;49.40
21109;BME280;10712;52.944;9.098;2023-06-24T09:46:56;102328.50;;;30.23;49.33
21109;BME280;10712;52.944;9.098;2023-06-24T09:49:23;102328.44;;;30.31;49.68
21109;BME280;10712;52.944;9.098;2023-06-24T09:51:58;102333.06;;;30.39;48.35
21109;BME280;10712;52.944;9.098;2023-06-24T09:54:27;102312.56;;;30.49;48.66
21109;BME280;10712;52.944;9.098;2023-06-24T09:56:54;102310.06;;;30.63;48.34
21109;BME280;10712;52.944;9.098;2023-06-24T09:59:26;102298.97;;;30.71;47.74
21109;BME280;10712;52.944;9.098;2023-06-24T10:01:55;102302.34;;;30.81;47.75
21109;BME280;10712;52.944;9.098;2023-06-24T10:04:21;102304.00;;;30.90;47.91
21109;BME280;10712;52.944;9.098;2023-06-24T10:06:51;102299.25;;;30.99;46.75
21109;BME280;10712;52.944;9.098;2023-06-24T10:09:17;102299.25;;;30.99;46.27
21109;BME280;10712;52.944;9.098;2023-06-24T10:11:46;102301.16;;;30.98;47.51
21109;BME280;10712;52.944;9.098;2023-06-24T10:14:14;102295.28;;;31.01;48.01
21109;BME280;10712;52.944;9.098;2023-06-24T10:16:41;102291.88;;;30.99;48.11
21109;BME280;10712;52.944;9.098;2023-06-24T10:19:07;102292.19;;;31.04;47.72
21109;BME280;10712;52.944;9.098;2023-06-24T10:24:16;102280.81;;;31.07;47.68
21109;BME280;10712;52.944;9.098;2023-06-24T10:26:52;102282.16;;;31.11;47.21
21109;BME280;10712;52.944;9.098;2023-06-24T10:29:30;102285.09;;;31.10;47.45
21109;BME280;10712;52.944;9.098;2023-06-24T10:31:56;102273.50;;;31.14;46.95
21109;BME280;10712;52.944;9.098;2023-06-24T10:34:31;102282.91;;;31.20;46.81
21109;BME280;10712;52.944;9.098;2023-06-24T10:37:12;102279.97;;;31.21;46.89
21109;BME280;10712;52.944;9.098;2023-06-24T10:42:44;102267.56;;;31.25;46.81
21109;BME280;10712;52.944;9.098;2023-06-24T10:45:17;102272.00;;;31.26;46.57
21109;BME280;10712;52.944;9.098;2023-06-24T10:47:51;102270.31;;;31.25;46.88
21109;BME280;10712;52.944;9.098;2023-06-24T10:50:22;102267.75;;;31.39;46.56
21109;BME280;10712;52.944;9.098;2023-06-24T10:52:52;102269.00;;;31.51;46.52
21109;BME280;10712;52.944;9.098;2023-06-24T10:55:25;102264.06;;;31.61;46.12
21109;BME280;10712;52.944;9.098;2023-06-24T10:57:51;102257.81;;;31.67;45.84
21109;BME280;10712;52.944;9.098;2023-06-24T11:00:17;102258.53;;;31.76;45.07
21109;BME280;10712;52.944;9.098;2023-06-24T11:02:44;102252.94;;;31.84;45.42
21109;BME280;10712;52.944;9.098;2023-06-24T11:05:10;102253.00;;;31.90;45.67
21109;BME280;10712;52.944;9.098;2023-06-24T11:07:38;102250.91;;;31.92;46.41
21109;BME280;10712;52.944;9.098;2023-06-24T11:10:10;102252.22;;;31.96;46.29
21109;BME280;10712;52.944;9.098;2023-06-24T11:12:39;102247.66;;;32.03;46.32
21109;BME280;10712;52.944;9.098;2023-06-24T11:15:07;102242.53;;;32.00;46.10
21109;BME280;10712;52.944;9.098;2023-06-24T11:17:35;102249.38;;;32.04;46.05
21109;BME280;10712;52.944;9.098;2023-06-24T11:20:02;102249.00;;;32.07;46.16
21109;BME280;10712;52.944;9.098;2023-06-24T11:22:28;102234.41;;;32.14;46.88
21109;BME280;10712;52.944;9.098;2023-06-24T11:24:55;102233.41;;;32.15;46.63
21109;BME280;10712;52.944;9.098;2023-06-24T11:27:30;102241.34;;;32.09;46.40
21109;BME280;10712;52.944;9.098;2023-06-24T11:29:59;102235.47;;;32.13;46.50
21109;BME280;10712;52.944;9.098;2023-06-24T11:32:43;102237.84;;;32.16;46.79
21109;BME280;10712;52.944;9.098;2023-06-24T11:35:11;102244.16;;;32.31;45.82
21109;BME280;10712;52.944;9.098;2023-06-24T11:37:42;102227.75;;;32.44;46.24
21109;BME280;10712;52.944;9.098;2023-06-24T11:40:13;102245.69;;;32.55;46.42
21109;BME280;10712;52.944;9.098;2023-06-24T11:42:41;102239.13;;;32.56;45.98
21109;BME280;10712;52.944;9.098;2023-06-24T11:45:13;102234.97;;;32.45;46.36
21109;BME280;10712;52.944;9.098;2023-06-24T11:47:40;102233.94;;;32.46;46.22
21109;BME280;10712;52.944;9.098;2023-06-24T11:50:07;102239.50;;;32.53;45.67
21109;BME280;10712;52.944;9.098;2023-06-24T11:52:46;102226.63;;;32.60;44.11
21109;BME280;10712;52.944;9.098;2023-06-24T11:55:20;102238.03;;;32.50;45.01
21109;BME280;10712;52.944;9.098;2023-06-24T12:00:29;102216.72;;;32.44;45.09
21109;BME280;10712;52.944;9.098;2023-06-24T12:03:05;102222.66;;;32.41;45.71
21109;BME280;10712;52.944;9.098;2023-06-24T12:05:34;102222.22;;;32.44;46.16
21109;BME280;10712;52.944;9.098;2023-06-24T12:08:09;102213.44;;;32.34;46.20
21109;BME280;10712;52.944;9.098;2023-06-24T12:10:37;102221.31;;;32.37;46.50
21109;BME280;10712;52.944;9.098;2023-06-24T12:13:04;102221.47;;;32.29;45.70
21109;BME280;10712;52.944;9.098;2023-06-24T12:15:37;102211.59;;;32.41;44.72
21109;BME280;10712;52.944;9.098;2023-06-24T12:18:02;102212.91;;;32.45;44.34
21109;BME280;10712;52.944;9.098;2023-06-24T12:20:29;102207.06;;;32.55;44.54
21109;BME280;10712;52.944;9.098;2023-06-24T12:22:56;102208.16;;;32.60;45.21
21109;BME280;10712;52.944;9.098;2023-06-24T12:25:21;102202.13;;;32.71;45.11
21109;BME280;10712;52.944;9.098;2023-06-24T12:27:47;102202.25;;;32.84;43.79
21109;BME280;10712;52.944;9.098;2023-06-24T12:30:13;102215.03;;;32.92;43.58
21109;BME280;10712;52.944;9.098;2023-06-24T12:32:39;102203.66;;;33.02;43.68
21109;BME280;10712;52.944;9.098;2023-06-24T12:35:06;102204.78;;;33.14;44.31
21109;BME280;10712;52.944;9.098;2023-06-24T12:37:34;102206.75;;;33.20;44.76
21109;BME280;10712;52.944;9.098;2023-06-24T12:40:02;102206.59;;;33.28;44.72
21109;BME280;10712;52.944;9.098;2023-06-24T12:42:28;102189.81;;;33.30;44.42
21109;BME280;10712;52.944;9.098;2023-06-24T12:44:54;102193.25;;;33.32;44.84
21109;BME280;10712;52.944;9.098;2023-06-24T12:47:21;102193.03;;;33.33;44.50
21109;BME280;10712;52.944;9.098;2023-06-24T12:49:49;102197.50;;;33.34;44.88
21109;BME280;10712;52.944;9.098;2023-06-24T12:52:15;102193.28;;;33.38;45.34
21109;BME280;10712;52.944;9.098;2023-06-24T12:54:41;102190.69;;;33.30;44.88
21109;BME280;10712;52.944;9.098;2023-06-24T12:57:07;102191.94;;;33.28;44.24
21109;BME280;10712;52.944;9.098;2023-06-24T12:59:33;102193.16;;;33.18;43.97
21109;BME280;10712;52.944;9.098;2023-06-24T13:01:59;102192.25;;;33.11;44.32
21109;BME280;10712;52.944;9.098;2023-06-24T13:04:26;102194.75;;;33.06;44.77
21109;BME280;10712;52.944;9.098;2023-06-24T13:06:53;102195.56;;;33.00;44.97
21109;BME280;10712;52.944;9.098;2023-06-24T13:09:19;102194.31;;;33.03;44.81
21109;BME280;10712;52.944;9.098;2023-06-24T13:11:46;102187.59;;;33.12;43.99
21109;BME280;10712;52.944;9.098;2023-06-24T13:14:13;102184.84;;;33.18;44.13